createdAt,value
2022-08-09T00:01:14.500Z,70.08
2022-08-09T00:04:05.838Z,70.10
2022-08-09T00:06:30.848Z,70.25
2022-08-09T00:08:59.165Z,70.21
2022-08-09T00:11:56.862Z,70.42
2022-08-09T00:14:21.825Z,70.65
2022-08-09T00:16:55.020Z,70.83
2022-08-09T00:19:22.137Z,71.18
2022-08-09T00:21:56.620Z,70.89
2022-08-09T00:24:27.762Z,71.08
2022-08-09T00:26:57.510Z,71.33
2022-08-09T00:30:10.290Z,71.25
2022-08-09T00:32:27.004Z,71.52
2022-08-09T00:34:55.686Z,71.55
2022-08-09T00:37:22.752Z,71.60
2022-08-09T00:40:14.088Z,71.62
2022-08-09T00:44:15.930Z,71.77
2022-08-09T00:45:25.839Z,71.92
2022-08-09T00:47:52.917Z,71.96
2022-08-09T00:50:25.078Z,72.19
2022-08-09T00:52:55.109Z,72.22
2022-08-09T00:56:03.227Z,72.21
2022-08-09T00:58:10.004Z,72.31
2022-08-09T01:00:44.278Z,72.22
2022-08-09T01:03:36.531Z,72.71
2022-08-09T01:06:25.552Z,72.71
2022-08-09T01:09:36.732Z,72.70
2022-08-09T01:12:36.696Z,73.05
2022-08-09T01:15:16.959Z,73.15
2022-08-09T01:17:58.937Z,73.21
2022-08-09T01:20:51.387Z,73.19
2022-08-09T01:24:01.721Z,73.16
2022-08-09T01:26:44.448Z,73.22
2022-08-09T01:29:19.176Z,73.29
2022-08-09T01:32:32.094Z,73.35
2022-08-09T01:34:42.116Z,73.47
2022-08-09T01:37:14.997Z,73.65
2022-08-09T01:39:52.482Z,73.64
2022-08-09T01:42:21.750Z,73.53
2022-08-09T01:44:50.599Z,73.54
2022-08-09T01:47:19.469Z,73.65
2022-08-09T01:49:50.982Z,73.94
2022-08-09T01:52:24.535Z,73.62
2022-08-09T01:54:57.863Z,73.71
2022-08-09T01:57:40.328Z,74.02
2022-08-09T02:00:35.052Z,74.34
2022-08-09T02:03:05.438Z,74.37
2022-08-09T02:05:37.911Z,74.81
2022-08-09T02:08:39.948Z,75.16
2022-08-09T02:11:16.965Z,75.18
2022-08-09T02:14:02.180Z,75.48
2022-08-09T02:16:59.710Z,75.53
2022-08-09T02:19:25.079Z,75.98
2022-08-09T02:22:31.646Z,76.04
2022-08-09T02:25:20.378Z,76.13
2022-08-09T02:28:03.928Z,76.43
2022-08-09T02:30:51.898Z,76.45
2022-08-09T02:33:38.397Z,76.62
2022-08-09T02:36:26.312Z,76.95
2022-08-09T02:39:00.706Z,76.90
2022-08-09T02:41:35.868Z,77.08
2022-08-09T02:44:13.814Z,77.31
2022-08-09T02:47:01.844Z,77.47
2022-08-09T02:49:41.419Z,77.56
2022-08-09T02:52:16.857Z,77.75
2022-08-09T02:54:54.551Z,77.75
2022-08-09T02:57:25.496Z,78.06
2022-08-09T03:00:21.144Z,78.04
2022-08-09T03:02:59.843Z,78.22
2022-08-09T03:05:34.671Z,78.35
2022-08-09T03:08:03.373Z,78.46
2022-08-09T03:10:33.673Z,78.68
2022-08-09T03:13:02.210Z,78.69
2022-08-09T03:16:04.256Z,78.95
2022-08-09T03:18:30.665Z,79.03
2022-08-09T03:21:00.224Z,79.05
2022-08-09T03:23:28.356Z,79.02
2022-08-09T03:26:03.775Z,79.12
2022-08-09T03:28:34.921Z,79.05
2022-08-09T03:31:04.401Z,79.20
2022-08-09T03:33:54.287Z,79.39
2022-08-09T03:36:27.587Z,79.40
2022-08-09T03:38:56.430Z,79.65
2022-08-09T03:41:29.745Z,79.40
2022-08-09T03:44:12.152Z,79.77
2022-08-09T03:46:39.534Z,79.85
2022-08-09T03:49:09.528Z,79.74
2022-08-09T03:51:58.311Z,79.97
2022-08-09T03:54:34.389Z,80.06
2022-08-09T03:57:18.340Z,80.27
2022-08-09T03:59:55.839Z,80.10
2022-08-09T04:02:32.502Z,79.96
2022-08-09T04:05:06.290Z,80.17
2022-08-09T04:07:53.071Z,80.29
2022-08-09T04:10:28.468Z,80.42
2022-08-09T04:13:09.519Z,80.58
2022-08-09T04:16:18.870Z,80.43
2022-08-09T04:18:26.631Z,80.40
2022-08-09T04:20:55.567Z,80.47
2022-08-09T04:23:25.012Z,80.69
2022-08-09T04:25:54.988Z,80.74
2022-08-09T04:28:33.525Z,80.96
2022-08-09T04:31:09.822Z,81.02
2022-08-09T04:33:51.981Z,81.08
2022-08-09T04:36:28.036Z,80.86
2022-08-09T04:38:59.313Z,81.08
2022-08-09T04:41:32.092Z,80.88
2022-08-09T04:44:07.222Z,80.64
2022-08-09T04:46:59.781Z,81.08
2022-08-09T04:49:52.325Z,80.91
2022-08-09T04:52:27.746Z,80.79
2022-08-09T04:54:57.614Z,80.96
2022-08-09T04:57:53.741Z,80.90
2022-08-09T05:00:17.161Z,80.80
2022-08-09T05:02:48.651Z,80.76
2022-08-09T05:05:32.086Z,80.59
2022-08-09T05:08:08.535Z,80.60
2022-08-09T05:10:36.807Z,80.43
2022-08-09T05:13:04.224Z,80.51
2022-08-09T05:15:38.835Z,80.36
2022-08-09T05:18:42.348Z,80.25
2022-08-09T05:21:02.293Z,80.17
2022-08-09T05:23:58.545Z,80.13
2022-08-09T05:26:31.649Z,80.08
2022-08-09T05:29:04.928Z,79.66
2022-08-09T05:31:44.187Z,79.11
2022-08-09T05:34:16.860Z,77.72
2022-08-09T05:36:47.012Z,75.33
2022-08-09T05:39:28.624Z,67.71
2022-08-09T05:42:02.842Z,60.24
2022-08-09T05:44:34.847Z,55.54
2022-08-09T05:47:04.877Z,52.33
2022-08-09T05:50:30.833Z,49.93
2022-08-09T05:52:24.758Z,48.31
2022-08-09T05:54:52.455Z,46.80
2022-08-09T05:57:19.620Z,45.91
2022-08-09T05:59:52.244Z,47.73
2022-08-09T06:02:20.290Z,53.81
2022-08-09T06:04:49.089Z,58.69
2022-08-09T06:07:21.294Z,62.12
2022-08-09T06:10:01.411Z,64.80
2022-08-09T06:12:30.761Z,66.65
2022-08-09T06:15:01.237Z,68.00
2022-08-09T06:17:39.245Z,69.03
2022-08-09T06:20:09.107Z,69.93
2022-08-09T06:22:36.722Z,70.35
2022-08-09T06:25:04.734Z,70.69
2022-08-09T06:27:42.082Z,71.09
2022-08-09T06:30:14.169Z,71.35
2022-08-09T06:33:13.637Z,71.55
2022-08-09T06:35:35.821Z,71.40
2022-08-09T06:38:19.577Z,71.34
2022-08-09T06:40:54.976Z,70.86
2022-08-09T06:43:22.337Z,70.67
2022-08-09T06:46:07.510Z,70.56
2022-08-09T06:48:42.830Z,70.09
2022-08-09T06:51:11.987Z,69.82
2022-08-09T06:53:41.904Z,69.22
2022-08-09T06:56:09.740Z,69.49
2022-08-09T07:00:46.775Z,68.85
2022-08-09T07:01:27.693Z,68.41
2022-08-09T07:04:20.033Z,68.62
2022-08-09T07:06:47.776Z,68.58
2022-08-09T07:09:57.142Z,68.33
2022-08-09T07:12:17.714Z,67.79
2022-08-09T07:14:51.278Z,67.10
2022-08-09T07:17:22.152Z,67.46
2022-08-09T07:19:50.990Z,67.74
2022-08-09T07:22:34.364Z,66.61
2022-08-09T07:25:09.480Z,66.89
2022-08-09T07:27:42.728Z,66.33
2022-08-09T07:30:13.385Z,65.99
2022-08-09T07:32:41.809Z,65.32
2022-08-09T07:35:12.626Z,65.19
2022-08-09T07:37:45.635Z,64.60
2022-08-09T07:40:20.771Z,63.89
2022-08-09T07:42:59.269Z,63.68
2022-08-09T07:45:38.280Z,63.45
2022-08-09T07:48:28.878Z,62.86
2022-08-09T07:51:03.025Z,62.00
2022-08-09T07:54:05.072Z,62.39
2022-08-09T07:56:27.793Z,62.88
2022-08-09T07:58:59.599Z,62.40
2022-08-09T08:01:32.946Z,62.38
2022-08-09T08:04:00.927Z,62.18
2022-08-09T08:06:32.257Z,62.19
2022-08-09T08:09:05.082Z,62.35
2022-08-09T08:12:10.167Z,61.71
2022-08-09T08:14:24.001Z,61.12
2022-08-09T08:17:07.317Z,61.04
2022-08-09T08:19:35.339Z,60.64
2022-08-09T08:22:04.132Z,60.46
2022-08-09T08:24:34.161Z,59.17
2022-08-09T08:27:16.959Z,58.38
2022-08-09T08:29:49.828Z,58.40
2022-08-09T08:32:28.709Z,58.73
2022-08-09T08:34:59.323Z,58.83
2022-08-09T08:37:41.676Z,57.77
2022-08-09T08:40:15.372Z,57.00
2022-08-09T08:42:47.353Z,57.44
2022-08-09T08:45:37.168Z,58.86
2022-08-09T08:48:05.980Z,56.63
2022-08-09T08:50:33.663Z,56.06
2022-08-09T08:53:04.075Z,56.07
2022-08-09T08:55:32.223Z,56.20
2022-08-09T08:57:59.965Z,54.87
2022-08-09T09:00:34.453Z,55.30
2022-08-09T09:03:11.563Z,54.99
2022-08-09T09:05:58.380Z,53.87
2022-08-09T09:08:40.296Z,54.91
2022-08-09T09:11:17.636Z,53.31
2022-08-09T09:13:56.418Z,53.63
2022-08-09T09:16:31.062Z,52.61
2022-08-09T09:19:40.167Z,51.91
2022-08-09T09:22:28.613Z,51.92
2022-08-09T09:26:01.024Z,51.80
2022-08-09T09:28:06.700Z,51.74
2022-08-09T09:30:40.793Z,51.36
2022-08-09T09:33:15.932Z,50.92
2022-08-09T09:36:19.923Z,50.61
2022-08-09T09:38:57.993Z,50.60
2022-08-09T09:41:32.931Z,49.60
2022-08-09T09:44:34.865Z,47.88
2022-08-09T09:47:10.724Z,46.74
2022-08-09T09:50:13.344Z,46.56
2022-08-09T09:52:36.412Z,45.39
2022-08-09T09:55:24.019Z,44.89
2022-08-09T09:58:17.246Z,46.31
2022-08-09T10:00:55.527Z,47.25
2022-08-09T10:03:56.416Z,47.00
2022-08-09T10:06:42.883Z,45.93
2022-08-09T10:09:22.234Z,45.30
2022-08-09T10:12:26.851Z,43.50
2022-08-09T10:14:50.027Z,42.51
2022-08-09T10:17:40.071Z,40.92
2022-08-09T10:20:32.489Z,42.04
2022-08-09T10:23:21.942Z,42.59
2022-08-09T10:26:07.755Z,42.61
2022-08-09T10:28:40.743Z,40.65
2022-08-09T10:34:11.468Z,41.14
2022-08-09T10:36:49.802Z,39.80
2022-08-09T10:39:19.637Z,39.57
2022-08-09T10:41:48.034Z,37.57
2022-08-09T10:44:26.403Z,39.31
2022-08-09T10:48:17.023Z,40.10
2022-08-09T10:50:31.439Z,39.62
2022-08-09T10:53:10.510Z,39.79
2022-08-09T10:55:58.455Z,40.37
2022-08-09T10:58:34.921Z,41.09
2022-08-09T11:03:02.560Z,39.22
2022-08-09T11:04:30.289Z,39.55
2022-08-09T11:07:00.261Z,39.97
2022-08-09T11:10:00.104Z,38.31
2022-08-09T11:12:29.901Z,37.94
2022-08-09T11:15:02.814Z,38.43
2022-08-09T11:17:31.035Z,38.39
2022-08-09T11:20:19.964Z,37.99
2022-08-09T11:22:55.396Z,39.23
2022-08-09T11:25:36.204Z,38.77
2022-08-09T11:28:55.890Z,38.25
2022-08-09T11:31:49.919Z,38.85
2022-08-09T11:34:32.784Z,38.93
2022-08-09T11:37:03.526Z,38.58
2022-08-09T11:40:29.867Z,38.03
2022-08-09T11:43:01.187Z,38.10
2022-08-09T11:45:43.577Z,37.62
2022-08-09T11:48:25.023Z,37.48
2022-08-09T11:52:54.049Z,36.74
2022-08-09T11:54:13.817Z,37.32
2022-08-09T11:56:48.248Z,37.41
2022-08-09T11:59:30.118Z,37.89
2022-08-09T12:02:17.808Z,37.11
2022-08-09T12:04:57.961Z,36.50
2022-08-09T12:07:41.477Z,36.84
2022-08-09T12:10:14.164Z,36.55
2022-08-09T12:13:03.805Z,36.39
2022-08-09T12:15:49.084Z,36.77
2022-08-09T12:18:29.611Z,36.55
2022-08-09T12:21:02.826Z,35.87
2022-08-09T12:23:56.271Z,35.58
2022-08-09T12:26:26.364Z,36.29
2022-08-09T12:29:14.548Z,36.39
2022-08-09T12:32:01.729Z,36.31
2022-08-09T12:34:42.418Z,35.66
2022-08-09T12:37:23.804Z,36.42
2022-08-09T12:40:01.218Z,36.30
2022-08-09T12:42:28.539Z,36.05
2022-08-09T12:44:59.438Z,35.51
2022-08-09T12:47:32.678Z,35.30
2022-08-09T12:50:19.674Z,35.97
2022-08-09T12:53:17.498Z,35.62
2022-08-09T12:56:14.242Z,35.51
2022-08-09T12:58:28.184Z,35.42
2022-08-09T13:00:57.588Z,33.70
2022-08-09T13:03:53.841Z,34.18
2022-08-09T13:06:34.000Z,34.61
2022-08-09T13:09:07.870Z,34.41
2022-08-09T13:11:42.269Z,34.35
2022-08-09T13:14:40.535Z,33.86
2022-08-09T13:17:43.757Z,33.64
2022-08-09T13:20:14.154Z,33.38
2022-08-09T13:23:04.858Z,32.93
2022-08-09T13:25:43.021Z,32.64
2022-08-09T13:28:33.735Z,32.57
2022-08-09T13:32:14.965Z,33.32
2022-08-09T13:34:00.090Z,33.14
2022-08-09T13:36:40.658Z,33.20
2022-08-09T13:41:45.823Z,33.61
2022-08-09T13:42:12.899Z,33.55
2022-08-09T13:44:43.136Z,32.70
2022-08-09T13:47:31.486Z,32.89
2022-08-09T13:50:12.619Z,33.00
2022-08-09T13:52:47.646Z,32.82
2022-08-09T13:55:17.631Z,32.74
2022-08-09T13:57:55.982Z,31.87
2022-08-09T14:00:28.395Z,32.28
2022-08-09T14:03:03.415Z,32.42
2022-08-09T14:06:00.477Z,32.41
2022-08-09T14:08:31.675Z,32.09
2022-08-09T14:11:00.517Z,32.65
2022-08-09T14:14:22.002Z,30.76
2022-08-09T14:16:28.142Z,30.96
2022-08-09T14:18:57.312Z,32.05
2022-08-09T14:21:29.323Z,31.84
2022-08-09T14:23:57.670Z,32.06
2022-08-09T14:26:33.783Z,31.61
2022-08-09T14:29:07.859Z,31.92
2022-08-09T14:31:54.849Z,32.18
2022-08-09T14:34:31.217Z,32.05
2022-08-09T14:37:07.433Z,32.21
2022-08-09T14:39:45.979Z,32.27
2022-08-09T14:42:30.204Z,31.57
2022-08-09T14:44:59.457Z,31.74
2022-08-09T14:47:45.507Z,32.12
2022-08-09T14:50:16.420Z,31.76
2022-08-09T14:52:47.936Z,31.01
2022-08-09T14:55:20.240Z,31.20
2022-08-09T14:57:49.257Z,30.85
2022-08-09T15:00:17.928Z,30.27
2022-08-09T15:02:47.754Z,30.19
2022-08-09T15:05:19.939Z,30.66
2022-08-09T15:07:55.905Z,30.84
2022-08-09T15:10:31.668Z,30.77
2022-08-09T15:13:01.432Z,30.62
2022-08-09T15:15:34.326Z,31.12
2022-08-09T15:18:08.270Z,31.02
2022-08-09T15:21:58.158Z,31.29
2022-08-09T15:24:01.703Z,31.62
2022-08-09T15:26:18.909Z,31.49
2022-08-09T15:28:55.521Z,31.71
2022-08-09T15:31:28.560Z,31.58
2022-08-09T15:34:31.608Z,30.57
2022-08-09T15:36:55.607Z,29.99
2022-08-09T15:39:34.607Z,30.80
2022-08-09T15:42:13.179Z,31.00
2022-08-09T15:44:42.098Z,30.94
2022-08-09T15:47:14.319Z,30.85
2022-08-09T15:50:00.552Z,31.01
2022-08-09T15:52:38.052Z,30.44
2022-08-09T15:55:10.393Z,30.81
2022-08-09T15:57:44.304Z,30.63
2022-08-09T16:00:25.296Z,30.79
2022-08-09T16:02:56.668Z,30.50
2022-08-09T16:05:47.412Z,30.40
2022-08-09T16:08:30.105Z,30.63
2022-08-09T16:11:01.410Z,30.64
2022-08-09T16:14:05.076Z,30.27
2022-08-09T16:16:20.182Z,29.91
2022-08-09T16:18:53.411Z,29.40
2022-08-09T16:21:25.489Z,29.73
2022-08-09T16:23:58.867Z,30.08
2022-08-09T16:26:35.216Z,29.22
2022-08-09T16:29:11.534Z,28.27
2022-08-09T16:32:17.965Z,28.14
2022-08-09T16:34:56.010Z,27.83
2022-08-09T16:37:53.959Z,27.69
2022-08-09T16:40:12.267Z,27.86
2022-08-09T16:42:44.991Z,28.20
2022-08-09T16:45:17.348Z,28.69
2022-08-09T16:48:41.364Z,27.97
2022-08-09T16:50:38.167Z,27.68
2022-08-09T16:53:08.796Z,28.24
2022-08-09T16:55:57.924Z,27.52
2022-08-09T16:58:24.851Z,27.87
2022-08-09T17:00:53.259Z,28.10
2022-08-09T17:03:22.852Z,27.41
2022-08-09T17:06:07.161Z,27.70
2022-08-09T17:09:02.771Z,28.05
2022-08-09T17:11:39.945Z,28.46
2022-08-09T17:14:26.192Z,27.91
2022-08-09T17:17:12.868Z,27.73
2022-08-09T17:20:29.004Z,28.26
2022-08-09T17:22:49.854Z,28.73
2022-08-09T17:25:22.196Z,27.69
2022-08-09T17:27:53.964Z,27.88
2022-08-09T17:30:30.736Z,28.22
2022-08-09T17:33:05.188Z,28.77
2022-08-09T17:35:48.932Z,28.25
2022-08-09T17:38:30.731Z,27.71
2022-08-09T17:41:01.286Z,28.14
2022-08-09T17:43:33.976Z,28.40
2022-08-09T17:46:09.078Z,28.37
2022-08-09T17:48:52.107Z,28.87
2022-08-09T17:51:21.629Z,28.83
2022-08-09T17:53:53.436Z,29.09
2022-08-09T17:56:26.621Z,29.47
2022-08-09T17:59:03.128Z,29.42
2022-08-09T18:01:41.231Z,29.62
2022-08-09T18:04:23.259Z,30.23
2022-08-09T18:06:55.200Z,30.11
2022-08-09T18:09:40.302Z,30.30
2022-08-09T18:12:19.683Z,31.08
2022-08-09T18:14:53.886Z,30.51
2022-08-09T18:17:27.665Z,30.22
2022-08-09T18:20:54.198Z,30.64
2022-08-09T18:23:05.063Z,31.06
2022-08-09T18:25:51.296Z,31.38
2022-08-09T18:30:39.731Z,31.89
2022-08-09T18:31:11.854Z,31.82
2022-08-09T18:33:40.217Z,32.40
2022-08-09T18:36:14.189Z,32.47
2022-08-09T18:38:55.130Z,32.39
2022-08-09T18:41:27.628Z,32.72
2022-08-09T18:43:55.320Z,33.10
2022-08-09T18:46:47.437Z,33.33
2022-08-09T18:49:09.447Z,33.95
2022-08-09T18:51:38.658Z,34.32
2022-08-09T18:54:29.480Z,34.84
2022-08-09T18:57:05.222Z,35.37
2022-08-09T18:59:49.340Z,36.43
2022-08-09T19:02:20.549Z,36.95
2022-08-09T19:05:14.840Z,37.37
2022-08-09T19:07:38.365Z,37.74
2022-08-09T19:10:14.021Z,38.21
2022-08-09T19:12:50.591Z,38.54
2022-08-09T19:15:23.374Z,38.80
2022-08-09T19:17:54.977Z,39.61
2022-08-09T19:20:26.316Z,40.09
2022-08-09T19:23:01.640Z,40.43
2022-08-09T19:26:00.967Z,40.77
2022-08-09T19:28:16.847Z,41.26
2022-08-09T19:30:44.923Z,41.53
2022-08-09T19:33:19.646Z,41.50
2022-08-09T19:35:57.287Z,41.79
2022-08-09T19:38:27.711Z,42.17
2022-08-09T19:40:57.727Z,42.87
2022-08-09T19:44:00.550Z,43.05
2022-08-09T19:46:34.846Z,43.08
2022-08-09T19:50:08.711Z,43.28
2022-08-09T19:51:55.467Z,44.06
2022-08-09T19:54:27.616Z,44.24
2022-08-09T19:56:57.031Z,44.31
2022-08-09T19:59:57.862Z,44.75
2022-08-09T20:02:17.325Z,44.91
2022-08-09T20:05:02.293Z,45.16
2022-08-09T20:07:58.626Z,45.24
2022-08-09T20:10:34.273Z,45.89
2022-08-09T20:13:06.876Z,45.76
2022-08-09T20:16:37.518Z,46.05
2022-08-09T20:18:27.565Z,46.28
2022-08-09T20:20:57.114Z,46.31
2022-08-09T20:23:39.245Z,46.59
2022-08-09T20:26:13.195Z,46.83
2022-08-09T20:28:48.860Z,46.59
2022-08-09T20:31:18.441Z,46.96
2022-08-09T20:33:46.580Z,47.42
2022-08-09T20:36:20.174Z,47.36
2022-08-09T20:41:37.732Z,47.84
2022-08-09T20:44:09.925Z,48.27
2022-08-09T20:46:43.302Z,48.41
2022-08-09T20:49:14.160Z,48.84
2022-08-09T20:51:44.144Z,49.00
2022-08-09T20:54:16.566Z,49.48
2022-08-09T20:56:46.901Z,49.82
2022-08-09T20:59:17.067Z,49.77
2022-08-09T21:01:50.425Z,50.00
2022-08-09T21:05:53.880Z,50.80
2022-08-09T21:07:11.498Z,50.63
2022-08-09T21:09:56.258Z,51.47
2022-08-09T21:12:56.442Z,51.44
2022-08-09T21:15:15.461Z,51.89
2022-08-09T21:18:20.823Z,51.95
2022-08-09T21:20:33.136Z,52.35
2022-08-09T21:23:03.345Z,52.91
2022-08-09T21:25:55.744Z,53.10
2022-08-09T21:28:34.854Z,53.48
2022-08-09T21:31:16.163Z,53.57
2022-08-09T21:33:50.308Z,53.83
2022-08-09T21:36:27.775Z,54.30
2022-08-09T21:38:59.295Z,54.20
2022-08-09T21:42:04.631Z,54.52
2022-08-09T21:44:33.971Z,55.02
2022-08-09T21:47:09.341Z,55.33
2022-08-09T21:49:43.175Z,55.51
2022-08-09T21:52:17.523Z,55.56
2022-08-09T21:55:03.246Z,55.82
2022-08-09T21:57:39.416Z,55.97
2022-08-09T22:00:33.618Z,56.33
2022-08-09T22:03:06.398Z,56.39
2022-08-09T22:05:42.392Z,56.66
2022-08-09T22:08:14.609Z,56.66
2022-08-09T22:11:00.749Z,56.94
2022-08-09T22:13:36.959Z,56.83
2022-08-09T22:16:09.029Z,57.39
2022-08-09T22:18:53.330Z,57.47
2022-08-09T22:21:50.308Z,57.82
2022-08-09T22:24:21.133Z,58.00
2022-08-09T22:26:54.045Z,58.02
2022-08-09T22:29:28.852Z,58.31
2022-08-09T22:32:06.651Z,58.79
2022-08-09T22:35:02.464Z,58.68
2022-08-09T22:37:40.581Z,58.91
2022-08-09T22:40:10.767Z,58.98
2022-08-09T22:42:47.520Z,59.27
2022-08-09T22:48:10.524Z,59.72
2022-08-09T22:48:13.621Z,59.16
2022-08-09T22:50:53.142Z,59.64
2022-08-09T22:53:20.452Z,60.02
2022-08-09T22:56:29.474Z,59.91
2022-08-09T22:58:35.076Z,60.17
2022-08-09T23:01:05.488Z,60.47
2022-08-09T23:04:04.183Z,60.44
2022-08-09T23:06:32.541Z,60.46
2022-08-09T23:09:07.522Z,60.74
2022-08-09T23:11:35.098Z,60.75
2022-08-09T23:14:03.536Z,60.83
2022-08-09T23:16:31.592Z,60.86
2022-08-09T23:18:59.092Z,60.94
2022-08-09T23:21:32.734Z,61.03
2022-08-09T23:24:05.201Z,61.19
2022-08-09T23:26:36.344Z,61.24
2022-08-09T23:29:05.889Z,61.23
2022-08-09T23:31:33.256Z,61.22
2022-08-09T23:34:01.019Z,61.59
2022-08-09T23:36:30.011Z,61.33
2022-08-09T23:38:57.067Z,61.63
2022-08-09T23:41:28.739Z,61.71
2022-08-09T23:44:02.135Z,61.70
2022-08-09T23:46:30.853Z,61.87
2022-08-09T23:48:59.888Z,62.10
2022-08-09T23:51:27.830Z,62.44
2022-08-09T23:54:01.898Z,62.52
2022-08-09T23:56:52.541Z,62.82
2022-08-09T23:59:21.074Z,62.98
